createdAt,value
2023-11-13T00:00:58.523Z,19.7
2023-11-13T00:06:52.001Z,19.4
2023-11-13T00:12:43.423Z,19.1
2023-11-13T00:18:36.022Z,19.4
2023-11-13T00:24:27.888Z,20.3
2023-11-13T00:30:19.195Z,20.4
2023-11-13T00:36:11.953Z,20.1
2023-11-13T00:42:07.764Z,19.8
2023-11-13T00:47:59.580Z,19.4
2023-11-13T00:53:51.884Z,19.2
2023-11-13T00:59:43.416Z,19.1
2023-11-13T01:05:36.814Z,20
2023-11-13T01:11:29.236Z,20.4
2023-11-13T01:17:20.666Z,20.1
2023-11-13T01:23:12.176Z,19.9
2023-11-13T01:29:07.609Z,19.5
2023-11-13T01:34:59.586Z,19.3
2023-11-13T01:40:51.064Z,19
2023-11-13T01:46:43.741Z,19.6
2023-11-13T01:52:35.636Z,20.3
2023-11-13T01:58:27.315Z,20.3
2023-11-13T02:04:19.728Z,19.9
2023-11-13T02:10:11.335Z,19.6
2023-11-13T02:16:02.783Z,19.3
2023-11-13T02:21:40.005Z,19.1
2023-11-13T02:27:31.816Z,19.6
2023-11-13T02:33:23.212Z,20.3
2023-11-13T02:39:15.057Z,20.4
2023-11-13T02:45:06.429Z,20.1
2023-11-13T02:50:58.296Z,19.7
2023-11-13T02:56:51.288Z,19.4
2023-11-13T03:02:43.194Z,19.1
2023-11-13T03:08:35.204Z,19.4
2023-11-13T03:14:11.345Z,20.2
2023-11-13T03:20:03.019Z,20.4
2023-11-13T03:25:39.313Z,20.1
2023-11-13T03:31:31.370Z,19.8
2023-11-13T03:37:23.674Z,19.4
2023-11-13T03:42:59.841Z,19.2
2023-11-13T03:48:52.729Z,19.1
2023-11-13T03:54:44.253Z,19.9
2023-11-13T04:00:36.313Z,20.4
2023-11-13T04:06:29.735Z,20.3
2023-11-13T04:12:20.496Z,19.9
2023-11-13T04:18:12.076Z,19.5
2023-11-13T04:23:49.143Z,19.3
2023-11-13T04:29:29.548Z,19
2023-11-13T04:35:05.804Z,19.6
2023-11-13T04:40:58.505Z,20.3
2023-11-13T04:46:50.756Z,20.3
2023-11-13T04:52:41.809Z,19.9
2023-11-13T04:58:37.459Z,19.6
2023-11-13T05:04:30.140Z,19.3
2023-11-13T05:10:22.462Z,19.1
2023-11-13T05:16:14.255Z,19.3
2023-11-13T05:22:09.153Z,20.2
2023-11-13T05:28:00.983Z,20.4
2023-11-13T05:33:54.023Z,20.1
2023-11-13T05:39:45.221Z,19.7
2023-11-13T05:45:36.771Z,19.3
2023-11-13T05:51:32.185Z,19.1
2023-11-13T05:57:24.598Z,19.1
2023-11-13T06:03:16.898Z,20.1
2023-11-13T06:09:12.076Z,20.3
2023-11-13T06:15:03.801Z,20.1
2023-11-13T06:20:40.105Z,19.8
2023-11-13T06:26:35.039Z,19.4
2023-11-13T06:32:29.301Z,19.1
2023-11-13T06:38:06.221Z,19.1
2023-11-13T06:43:58.816Z,19.9
2023-11-13T06:49:51.454Z,20.3
2023-11-13T06:55:43.423Z,20.1
2023-11-13T07:01:35.864Z,19.8
2023-11-13T07:07:28.483Z,19.5
2023-11-13T07:13:07.542Z,19.2
2023-11-13T07:19:00.681Z,19.1
2023-11-13T07:24:52.267Z,19.9
2023-11-13T07:30:44.498Z,20.4
2023-11-13T07:36:37.813Z,20.2
2023-11-13T07:42:29.640Z,19.8
2023-11-13T07:48:23.269Z,19.5
2023-11-13T07:54:32.736Z,19.2
2023-11-13T08:00:26.097Z,19
2023-11-13T08:06:17.665Z,19.8
2023-11-13T08:12:19.021Z,20.4
2023-11-13T08:18:11.232Z,20.1
2023-11-13T08:24:03.721Z,19.8
2023-11-13T08:29:56.456Z,19.4
2023-11-13T08:35:51.131Z,19.2
2023-11-13T08:41:42.665Z,19.1
2023-11-13T08:47:47.089Z,19.9
2023-11-13T08:53:42.984Z,20.2
2023-11-13T08:59:34.885Z,20
2023-11-13T09:05:14.443Z,19.6
2023-11-13T09:11:09.183Z,19.3
2023-11-13T09:16:46.282Z,19.1
2023-11-13T09:22:38.532Z,19.2
2023-11-13T09:28:30.535Z,20.2
2023-11-13T09:34:21.711Z,20.4
2023-11-13T09:40:14.300Z,20
2023-11-13T09:46:19.889Z,19.7
2023-11-13T09:52:20.887Z,19.4
2023-11-13T09:58:13.028Z,19.1
2023-11-13T10:04:07.311Z,19.4
2023-11-13T10:10:02.261Z,20.2
2023-11-13T10:15:38.923Z,20.3
2023-11-13T10:21:35.134Z,19.9
2023-11-13T10:27:26.788Z,19.6
2023-11-13T10:33:07.758Z,19.3
2023-11-13T10:39:03.298Z,19.1
2023-11-13T10:45:00.648Z,19.4
2023-11-13T10:50:56.320Z,20.2
2023-11-13T10:56:33.288Z,20.3
2023-11-13T11:02:28.435Z,20
2023-11-13T11:08:24.636Z,19.8
2023-11-13T11:14:21.935Z,19.4
2023-11-13T11:20:20.110Z,19.2
2023-11-13T11:26:13.242Z,19.3
2023-11-13T11:32:01.590Z,20.2
2023-11-13T11:37:53.739Z,20.4
2023-11-13T11:43:32.914Z,20.1
2023-11-13T11:49:37.960Z,19.8
2023-11-13T11:55:33.373Z,19.4
2023-11-13T12:01:25.246Z,19.3
2023-11-13T12:07:19.627Z,19.1
2023-11-13T12:12:56.065Z,18.8
2023-11-13T12:18:49.564Z,18.8
2023-11-13T12:24:54.996Z,19.7
2023-11-13T12:30:45.979Z,20
2023-11-13T12:36:39.020Z,19.8
2023-11-13T12:42:15.511Z,19.4
2023-11-13T12:48:13.527Z,19.3
2023-11-13T12:54:06.525Z,19.1
2023-11-13T12:59:58.465Z,18.9
2023-11-13T13:05:56.331Z,18.8
2023-11-13T13:11:48.085Z,19.3
2023-11-13T13:17:57.499Z,19.9
2023-11-13T13:23:50.819Z,19.9
2023-11-13T13:29:44.248Z,19.8
2023-11-13T13:35:37.859Z,19.4
2023-11-13T13:41:28.827Z,19.2
2023-11-13T13:47:21.149Z,19
2023-11-13T13:53:14.638Z,18.8
2023-11-13T13:59:11.960Z,18.9
2023-11-13T14:05:16.824Z,19.8
2023-11-13T14:11:10.488Z,20.1
2023-11-13T14:17:23.284Z,19.9
2023-11-13T14:23:18.231Z,19.6
2023-11-13T14:29:11.598Z,19.3
2023-11-13T14:34:34.048Z,19.1
2023-11-13T14:40:11.581Z,18.9
2023-11-13T14:46:03.511Z,18.8
2023-11-13T14:52:02.797Z,18.8
2023-11-13T14:57:56.416Z,19.8
2023-11-13T15:03:50.413Z,20
2023-11-13T15:09:42.775Z,19.8
2023-11-13T15:15:34.134Z,19.5
2023-11-13T15:21:36.054Z,19.3
2023-11-13T15:27:54.004Z,19.1
2023-11-13T15:33:46.543Z,18.9
2023-11-13T15:39:46.904Z,18.8
2023-11-13T15:51:00.906Z,19.5
2023-11-13T15:56:53.577Z,20
2023-11-13T16:02:54.353Z,19.9
2023-11-13T16:08:42.312Z,19.6
2023-11-13T16:14:34.942Z,19.4
2023-11-13T16:20:16.442Z,19.2
2023-11-13T16:26:07.717Z,19
2023-11-13T16:32:00.507Z,18.8
2023-11-13T16:43:27.099Z,18.6
2023-11-13T16:49:22.212Z,19.5
2023-11-13T16:55:17.976Z,19.9
2023-11-13T17:01:09.730Z,19.8
2023-11-13T17:07:05.033Z,19.6
2023-11-13T17:12:41.234Z,19.3
2023-11-13T17:18:33.882Z,19.1
2023-11-13T17:24:29.436Z,18.9
2023-11-13T17:30:08.667Z,18.8
2023-11-13T17:36:03.330Z,18.6
2023-11-13T17:41:39.993Z,18.6
2023-11-13T17:47:16.143Z,19.4
2023-11-13T17:53:08.088Z,19.9
2023-11-13T17:58:59.759Z,19.8
2023-11-13T18:04:56.415Z,19.5
2023-11-13T18:10:35.195Z,19.3
2023-11-13T18:16:26.820Z,19.1
2023-11-13T18:22:17.776Z,18.9
2023-11-13T18:33:41.737Z,18.6
2023-11-13T18:39:36.223Z,18.6
2023-11-13T18:45:29.172Z,19.4
2023-11-13T18:51:21.562Z,19.8
2023-11-13T18:57:12.346Z,19.6
2023-11-13T19:03:06.297Z,19.4
2023-11-13T19:08:46.007Z,19.2
2023-11-13T19:14:41.183Z,18.9
2023-11-13T19:20:33.560Z,18.6
2023-11-13T19:26:26.100Z,18.6
2023-11-13T19:31:35.036Z,18.4
2023-11-13T19:42:44.500Z,19.6
2023-11-13T19:48:31.913Z,19.8
2023-11-13T19:54:34.289Z,19.7
2023-11-13T19:59:56.617Z,19.4
2023-11-13T20:05:21.760Z,19.3
2023-11-13T20:10:43.545Z,19.1
2023-11-13T20:16:20.404Z,18.8
2023-11-13T20:27:47.405Z,18.6
2023-11-13T20:33:49.471Z,18.6
2023-11-13T20:39:25.646Z,19.6
2023-11-13T20:44:46.244Z,19.9
2023-11-13T20:50:40.181Z,19.7
2023-11-13T20:56:15.426Z,19.4
2023-11-13T21:01:38.345Z,19.1
2023-11-13T21:07:13.507Z,18.9
2023-11-13T21:13:05.234Z,18.8
2023-11-13T21:18:57.652Z,18.6
2023-11-13T21:24:19.588Z,19.3
2023-11-13T21:30:11.775Z,19.8
2023-11-13T21:35:48.735Z,19.8
2023-11-13T21:41:25.296Z,19.5
2023-11-13T21:47:17.320Z,19.2
2023-11-13T21:52:38.395Z,19
2023-11-13T21:58:30.990Z,18.8
2023-11-13T22:09:30.641Z,18.5
2023-11-13T22:15:22.623Z,19.1
2023-11-13T22:21:00.202Z,20.2
2023-11-13T22:26:36.359Z,20.4
2023-11-13T22:32:12.930Z,20.1
2023-11-13T22:37:49.669Z,19.8
2023-11-13T22:43:25.667Z,19.4
2023-11-13T22:49:03.241Z,19.2
2023-11-13T22:54:39.957Z,19.1
2023-11-13T23:00:00.927Z,19.8
2023-11-13T23:05:38.516Z,20.4
2023-11-13T23:11:15.032Z,20.4
2023-11-13T23:16:51.518Z,20.1
2023-11-13T23:22:37.180Z,19.8
2023-11-13T23:28:28.868Z,19.4
2023-11-13T23:34:05.336Z,19.1
2023-11-13T23:39:42.306Z,18.9
2023-11-13T23:45:18.840Z,18.8
2023-11-13T23:50:54.919Z,19.4
2023-11-13T23:56:31.707Z,20.3
